Terminal Aerodrome Forecast
Issued by NWS

Home | Current Version | Previous Version | Text Only | Print | Product List | Glossary On
Versions: 1 2 3 4 5 6 7 8 9 10 11 12 13 14 15 16 17 18 19 20 21 22 23 24 25 26 27 28 29 30 31 32 33 34 35 36
000
FTUS41 KBOX 241120
TAFFMH
TAF
KFMH 241120Z 2412/2512 19012KT P6SM OVC110
     FM241800 21015G30KT P6SM OVC050
     FM250000 23013G29KT P6SM OVC035
     FM250200 24011G18KT P6SM BKN040
     FM250900 25007KT P6SM BKN060=

USA.gov is the U.S. government's official web portal to all federal, state and local government web resources and services.